Alma, New York
Current Conditions -  °F | °C
As of 8:56 PM on Monday 20 Oct 2014 (Local Time) from KELZ Reporting Station
Light Rain Light Rain  
Wind Chill: 45°   Ceiling: 4800
Heat Index: 48°   Visibility: 10mi
Dew Point: 41°   Wind: 7mph
Humidity: 77%   Direction: 190°S
Pressure: 29.87"   Gusts: NA
Location:  42.01°N, 78.06°W
Report Text: KELZ 210056Z AUTO 19006KT 10SM -RA SCT039 BKN048 OVC070 09/05 A2987 RMK AO2 RAB17 SLP125 P0004 T00890050
Loading
Personal Weather Stations






























Interactive Weather Map
Tropical Storm Tracking
New forecast layout! Learn more

10-Day Weather Forecast

Advertisements
Track Severe Weather on mobile